sensor_id;sensor_type;location;lat;lon;timestamp;P1;durP1;ratioP1;P2;durP2;ratioP2
44304;SDS011;30019;50.576;8.568;2024-03-17T00:00:20;12.60;;;7.43;;
44304;SDS011;30019;50.576;8.568;2024-03-17T00:02:46;10.55;;;7.20;;
44304;SDS011;30019;50.576;8.568;2024-03-17T00:05:12;6.68;;;6.05;;
44304;SDS011;30019;50.576;8.568;2024-03-17T00:07:41;8.75;;;5.88;;
44304;SDS011;30019;50.576;8.568;2024-03-17T00:10:07;8.55;;;5.68;;
44304;SDS011;30019;50.576;8.568;2024-03-17T00:12:35;5.72;;;5.25;;
44304;SDS011;30019;50.576;8.568;2024-03-17T00:15:01;6.05;;;5.10;;
44304;SDS011;30019;50.576;8.568;2024-03-17T00:17:27;5.93;;;4.60;;
44304;SDS011;30019;50.576;8.568;2024-03-17T00:19:53;5.78;;;5.28;;
44304;SDS011;30019;50.576;8.568;2024-03-17T00:22:19;9.35;;;5.55;;
44304;SDS011;30019;50.576;8.568;2024-03-17T00:24:45;8.13;;;5.75;;
44304;SDS011;30019;50.576;8.568;2024-03-17T00:27:11;11.50;;;5.30;;
44304;SDS011;30019;50.576;8.568;2024-03-17T00:29:38;5.95;;;5.32;;
44304;SDS011;30019;50.576;8.568;2024-03-17T00:32:04;8.52;;;6.53;;
44304;SDS011;30019;50.576;8.568;2024-03-17T00:34:31;11.15;;;6.88;;
44304;SDS011;30019;50.576;8.568;2024-03-17T00:36:57;17.88;;;10.23;;
44304;SDS011;30019;50.576;8.568;2024-03-17T00:39:24;15.18;;;7.85;;
44304;SDS011;30019;50.576;8.568;2024-03-17T00:41:50;8.82;;;6.70;;
44304;SDS011;30019;50.576;8.568;2024-03-17T00:44:16;6.63;;;5.65;;
44304;SDS011;30019;50.576;8.568;2024-03-17T00:46:43;11.80;;;6.07;;
44304;SDS011;30019;50.576;8.568;2024-03-17T00:49:09;7.93;;;5.78;;
44304;SDS011;30019;50.576;8.568;2024-03-17T00:51:35;10.27;;;5.15;;
44304;SDS011;30019;50.576;8.568;2024-03-17T00:54:01;6.28;;;5.72;;
44304;SDS011;30019;50.576;8.568;2024-03-17T00:56:27;8.27;;;5.38;;
44304;SDS011;30019;50.576;8.568;2024-03-17T00:58:53;8.20;;;5.50;;
44304;SDS011;30019;50.576;8.568;2024-03-17T01:01:19;8.52;;;6.25;;
44304;SDS011;30019;50.576;8.568;2024-03-17T01:03:47;10.07;;;6.30;;
44304;SDS011;30019;50.576;8.568;2024-03-17T01:06:13;9.82;;;6.72;;
44304;SDS011;30019;50.576;8.568;2024-03-17T01:08:39;8.68;;;6.43;;
44304;SDS011;30019;50.576;8.568;2024-03-17T01:11:05;8.07;;;6.68;;
44304;SDS011;30019;50.576;8.568;2024-03-17T01:13:33;14.52;;;8.10;;
44304;SDS011;30019;50.576;8.568;2024-03-17T01:16:00;9.05;;;7.03;;
44304;SDS011;30019;50.576;8.568;2024-03-17T01:18:26;11.40;;;8.20;;
44304;SDS011;30019;50.576;8.568;2024-03-17T01:20:52;9.48;;;6.97;;
44304;SDS011;30019;50.576;8.568;2024-03-17T01:23:18;9.95;;;7.05;;
44304;SDS011;30019;50.576;8.568;2024-03-17T01:25:44;15.27;;;8.38;;
44304;SDS011;30019;50.576;8.568;2024-03-17T01:28:10;9.52;;;6.97;;
44304;SDS011;30019;50.576;8.568;2024-03-17T01:30:37;8.20;;;7.47;;
44304;SDS011;30019;50.576;8.568;2024-03-17T01:33:04;10.57;;;6.75;;
44304;SDS011;30019;50.576;8.568;2024-03-17T01:35:30;9.60;;;6.97;;
44304;SDS011;30019;50.576;8.568;2024-03-17T01:37:56;12.57;;;8.73;;
44304;SDS011;30019;50.576;8.568;2024-03-17T01:40:22;14.15;;;7.80;;
44304;SDS011;30019;50.576;8.568;2024-03-17T01:42:48;11.25;;;7.15;;
44304;SDS011;30019;50.576;8.568;2024-03-17T01:45:28;9.32;;;7.35;;
44304;SDS011;30019;50.576;8.568;2024-03-17T01:47:54;11.65;;;7.93;;
44304;SDS011;30019;50.576;8.568;2024-03-17T01:50:24;12.52;;;8.15;;
44304;SDS011;30019;50.576;8.568;2024-03-17T01:52:54;10.45;;;8.13;;
44304;SDS011;30019;50.576;8.568;2024-03-17T01:55:24;16.13;;;8.55;;
44304;SDS011;30019;50.576;8.568;2024-03-17T01:57:51;9.18;;;6.43;;
44304;SDS011;30019;50.576;8.568;2024-03-17T02:00:18;11.15;;;8.00;;
44304;SDS011;30019;50.576;8.568;2024-03-17T02:02:44;15.75;;;9.65;;
44304;SDS011;30019;50.576;8.568;2024-03-17T02:05:10;9.13;;;6.60;;
44304;SDS011;30019;50.576;8.568;2024-03-17T02:07:36;11.05;;;6.68;;
44304;SDS011;30019;50.576;8.568;2024-03-17T02:10:03;12.80;;;8.48;;
44304;SDS011;30019;50.576;8.568;2024-03-17T02:12:30;9.68;;;7.82;;
44304;SDS011;30019;50.576;8.568;2024-03-17T02:14:59;10.23;;;6.95;;
44304;SDS011;30019;50.576;8.568;2024-03-17T02:17:25;13.95;;;7.95;;
44304;SDS011;30019;50.576;8.568;2024-03-17T02:19:54;13.25;;;8.85;;
44304;SDS011;30019;50.576;8.568;2024-03-17T02:22:20;17.30;;;9.23;;
44304;SDS011;30019;50.576;8.568;2024-03-17T02:24:46;10.77;;;9.32;;
44304;SDS011;30019;50.576;8.568;2024-03-17T02:27:12;11.95;;;8.75;;
44304;SDS011;30019;50.576;8.568;2024-03-17T02:29:38;15.05;;;8.85;;
44304;SDS011;30019;50.576;8.568;2024-03-17T02:32:07;13.48;;;8.98;;
44304;SDS011;30019;50.576;8.568;2024-03-17T02:34:34;13.00;;;9.50;;
44304;SDS011;30019;50.576;8.568;2024-03-17T02:37:03;12.95;;;8.95;;
44304;SDS011;30019;50.576;8.568;2024-03-17T02:39:29;10.40;;;8.90;;
44304;SDS011;30019;50.576;8.568;2024-03-17T02:44:29;14.70;;;9.65;;
44304;SDS011;30019;50.576;8.568;2024-03-17T02:46:56;11.82;;;9.57;;
44304;SDS011;30019;50.576;8.568;2024-03-17T02:49:22;13.43;;;9.38;;
44304;SDS011;30019;50.576;8.568;2024-03-17T02:51:48;10.40;;;9.00;;
44304;SDS011;30019;50.576;8.568;2024-03-17T02:54:14;12.55;;;9.13;;
44304;SDS011;30019;50.576;8.568;2024-03-17T02:56:40;10.95;;;9.32;;
44304;SDS011;30019;50.576;8.568;2024-03-17T02:59:07;12.85;;;9.35;;
44304;SDS011;30019;50.576;8.568;2024-03-17T03:01:33;10.85;;;8.25;;
44304;SDS011;30019;50.576;8.568;2024-03-17T03:03:59;16.58;;;9.60;;
44304;SDS011;30019;50.576;8.568;2024-03-17T03:06:25;13.38;;;9.63;;
44304;SDS011;30019;50.576;8.568;2024-03-17T03:08:51;15.90;;;10.00;;
44304;SDS011;30019;50.576;8.568;2024-03-17T03:11:18;14.80;;;9.30;;
44304;SDS011;30019;50.576;8.568;2024-03-17T03:13:44;16.70;;;10.48;;
44304;SDS011;30019;50.576;8.568;2024-03-17T03:16:10;25.60;;;9.45;;
44304;SDS011;30019;50.576;8.568;2024-03-17T03:18:37;13.20;;;9.05;;
44304;SDS011;30019;50.576;8.568;2024-03-17T03:21:04;12.95;;;9.68;;
44304;SDS011;30019;50.576;8.568;2024-03-17T03:23:31;16.20;;;10.27;;
44304;SDS011;30019;50.576;8.568;2024-03-17T03:25:57;21.85;;;12.63;;
44304;SDS011;30019;50.576;8.568;2024-03-17T03:28:24;18.52;;;11.88;;
44304;SDS011;30019;50.576;8.568;2024-03-17T03:30:50;18.58;;;11.38;;
44304;SDS011;30019;50.576;8.568;2024-03-17T03:33:16;25.40;;;11.50;;
44304;SDS011;30019;50.576;8.568;2024-03-17T03:35:43;23.00;;;10.90;;
44304;SDS011;30019;50.576;8.568;2024-03-17T03:38:09;19.45;;;10.60;;
44304;SDS011;30019;50.576;8.568;2024-03-17T03:40:35;20.27;;;10.90;;
44304;SDS011;30019;50.576;8.568;2024-03-17T03:43:01;17.42;;;10.32;;
44304;SDS011;30019;50.576;8.568;2024-03-17T03:45:27;17.15;;;10.73;;
44304;SDS011;30019;50.576;8.568;2024-03-17T03:47:53;19.67;;;10.40;;
44304;SDS011;30019;50.576;8.568;2024-03-17T03:50:20;14.05;;;10.02;;
44304;SDS011;30019;50.576;8.568;2024-03-17T03:52:46;15.98;;;10.45;;
44304;SDS011;30019;50.576;8.568;2024-03-17T03:55:12;19.30;;;10.68;;
44304;SDS011;30019;50.576;8.568;2024-03-17T03:57:42;15.02;;;11.05;;
44304;SDS011;30019;50.576;8.568;2024-03-17T04:00:11;13.85;;;10.35;;
44304;SDS011;30019;50.576;8.568;2024-03-17T04:02:40;16.98;;;11.13;;
44304;SDS011;30019;50.576;8.568;2024-03-17T04:05:07;15.77;;;10.55;;
44304;SDS011;30019;50.576;8.568;2024-03-17T04:07:33;12.70;;;10.00;;
44304;SDS011;30019;50.576;8.568;2024-03-17T04:10:01;21.35;;;11.45;;
44304;SDS011;30019;50.576;8.568;2024-03-17T04:12:27;21.15;;;11.77;;
44304;SDS011;30019;50.576;8.568;2024-03-17T04:14:53;16.45;;;10.70;;
44304;SDS011;30019;50.576;8.568;2024-03-17T04:17:20;12.88;;;10.32;;
44304;SDS011;30019;50.576;8.568;2024-03-17T04:19:49;18.33;;;10.45;;
44304;SDS011;30019;50.576;8.568;2024-03-17T04:22:15;15.30;;;10.63;;
44304;SDS011;30019;50.576;8.568;2024-03-17T04:24:42;20.30;;;11.10;;
44304;SDS011;30019;50.576;8.568;2024-03-17T04:27:08;22.98;;;11.38;;
44304;SDS011;30019;50.576;8.568;2024-03-17T04:29:35;21.55;;;12.27;;
44304;SDS011;30019;50.576;8.568;2024-03-17T04:32:01;21.65;;;14.23;;
44304;SDS011;30019;50.576;8.568;2024-03-17T04:34:27;19.63;;;12.98;;
44304;SDS011;30019;50.576;8.568;2024-03-17T04:36:53;19.65;;;13.13;;
44304;SDS011;30019;50.576;8.568;2024-03-17T04:39:19;21.60;;;11.93;;
44304;SDS011;30019;50.576;8.568;2024-03-17T04:41:47;17.15;;;10.60;;
44304;SDS011;30019;50.576;8.568;2024-03-17T04:44:13;20.30;;;11.65;;
44304;SDS011;30019;50.576;8.568;2024-03-17T04:46:39;22.45;;;12.57;;
44304;SDS011;30019;50.576;8.568;2024-03-17T04:49:05;15.63;;;11.20;;
44304;SDS011;30019;50.576;8.568;2024-03-17T04:51:31;16.88;;;12.25;;
44304;SDS011;30019;50.576;8.568;2024-03-17T04:53:58;20.02;;;13.07;;
44304;SDS011;30019;50.576;8.568;2024-03-17T04:56:24;21.77;;;12.30;;
44304;SDS011;30019;50.576;8.568;2024-03-17T04:58:50;22.30;;;14.30;;
44304;SDS011;30019;50.576;8.568;2024-03-17T05:01:16;21.10;;;13.55;;
44304;SDS011;30019;50.576;8.568;2024-03-17T05:03:42;17.30;;;12.02;;
44304;SDS011;30019;50.576;8.568;2024-03-17T05:06:08;24.48;;;12.88;;
44304;SDS011;30019;50.576;8.568;2024-03-17T05:08:34;24.52;;;12.75;;
44304;SDS011;30019;50.576;8.568;2024-03-17T05:11:01;13.77;;;11.18;;
44304;SDS011;30019;50.576;8.568;2024-03-17T05:13:31;15.50;;;11.60;;
44304;SDS011;30019;50.576;8.568;2024-03-17T05:15:57;14.85;;;10.63;;
44304;SDS011;30019;50.576;8.568;2024-03-17T05:18:23;19.42;;;13.20;;
44304;SDS011;30019;50.576;8.568;2024-03-17T05:21:00;22.55;;;13.95;;
44304;SDS011;30019;50.576;8.568;2024-03-17T05:23:31;20.58;;;12.20;;
44304;SDS011;30019;50.576;8.568;2024-03-17T05:25:57;19.23;;;12.48;;
44304;SDS011;30019;50.576;8.568;2024-03-17T05:28:24;20.20;;;12.68;;
44304;SDS011;30019;50.576;8.568;2024-03-17T05:30:50;21.15;;;12.50;;
44304;SDS011;30019;50.576;8.568;2024-03-17T05:33:17;21.40;;;12.07;;
44304;SDS011;30019;50.576;8.568;2024-03-17T05:35:58;32.28;;;20.95;;
44304;SDS011;30019;50.576;8.568;2024-03-17T05:38:25;22.85;;;12.77;;
44304;SDS011;30019;50.576;8.568;2024-03-17T05:40:59;19.42;;;11.98;;
44304;SDS011;30019;50.576;8.568;2024-03-17T05:43:25;15.82;;;10.82;;
44304;SDS011;30019;50.576;8.568;2024-03-17T05:45:52;21.73;;;11.40;;
44304;SDS011;30019;50.576;8.568;2024-03-17T05:48:18;21.63;;;11.75;;
44304;SDS011;30019;50.576;8.568;2024-03-17T05:50:44;16.75;;;11.50;;
44304;SDS011;30019;50.576;8.568;2024-03-17T05:53:10;12.20;;;9.38;;
44304;SDS011;30019;50.576;8.568;2024-03-17T05:55:37;17.63;;;11.45;;
44304;SDS011;30019;50.576;8.568;2024-03-17T05:58:03;16.70;;;11.52;;
44304;SDS011;30019;50.576;8.568;2024-03-17T06:00:29;17.02;;;11.18;;
44304;SDS011;30019;50.576;8.568;2024-03-17T06:02:56;21.10;;;11.40;;
44304;SDS011;30019;50.576;8.568;2024-03-17T06:05:22;18.23;;;12.38;;
44304;SDS011;30019;50.576;8.568;2024-03-17T06:07:48;18.50;;;11.57;;
44304;SDS011;30019;50.576;8.568;2024-03-17T06:10:14;15.85;;;11.50;;
44304;SDS011;30019;50.576;8.568;2024-03-17T06:12:40;18.60;;;12.45;;
44304;SDS011;30019;50.576;8.568;2024-03-17T06:15:06;17.38;;;13.23;;
44304;SDS011;30019;50.576;8.568;2024-03-17T06:17:32;23.60;;;12.38;;
44304;SDS011;30019;50.576;8.568;2024-03-17T06:19:58;18.00;;;12.95;;
44304;SDS011;30019;50.576;8.568;2024-03-17T06:22:28;19.52;;;12.65;;
44304;SDS011;30019;50.576;8.568;2024-03-17T06:24:54;20.42;;;12.63;;
44304;SDS011;30019;50.576;8.568;2024-03-17T06:27:20;20.65;;;12.90;;
44304;SDS011;30019;50.576;8.568;2024-03-17T06:29:46;23.50;;;12.95;;
44304;SDS011;30019;50.576;8.568;2024-03-17T06:32:12;19.23;;;13.98;;
44304;SDS011;30019;50.576;8.568;2024-03-17T06:34:38;23.15;;;13.43;;
44304;SDS011;30019;50.576;8.568;2024-03-17T06:37:04;20.50;;;12.43;;
44304;SDS011;30019;50.576;8.568;2024-03-17T06:39:30;14.55;;;11.32;;
44304;SDS011;30019;50.576;8.568;2024-03-17T06:41:56;19.13;;;11.07;;
44304;SDS011;30019;50.576;8.568;2024-03-17T06:44:22;18.30;;;11.30;;
44304;SDS011;30019;50.576;8.568;2024-03-17T06:46:52;17.35;;;11.13;;
44304;SDS011;30019;50.576;8.568;2024-03-17T06:49:18;13.90;;;11.27;;
44304;SDS011;30019;50.576;8.568;2024-03-17T06:51:44;17.05;;;12.13;;
44304;SDS011;30019;50.576;8.568;2024-03-17T06:54:10;18.42;;;11.35;;
44304;SDS011;30019;50.576;8.568;2024-03-17T06:56:36;14.15;;;11.20;;
44304;SDS011;30019;50.576;8.568;2024-03-17T06:59:02;16.92;;;11.45;;
44304;SDS011;30019;50.576;8.568;2024-03-17T07:01:28;23.17;;;12.35;;
44304;SDS011;30019;50.576;8.568;2024-03-17T07:03:54;15.07;;;11.77;;
44304;SDS011;30019;50.576;8.568;2024-03-17T07:06:20;17.85;;;11.95;;
44304;SDS011;30019;50.576;8.568;2024-03-17T07:08:46;20.77;;;12.70;;
44304;SDS011;30019;50.576;8.568;2024-03-17T07:11:12;15.38;;;12.05;;
44304;SDS011;30019;50.576;8.568;2024-03-17T07:13:38;20.63;;;12.77;;
44304;SDS011;30019;50.576;8.568;2024-03-17T07:16:06;20.15;;;13.02;;
44304;SDS011;30019;50.576;8.568;2024-03-17T07:18:32;18.08;;;12.35;;
44304;SDS011;30019;50.576;8.568;2024-03-17T07:20:59;21.48;;;13.70;;
44304;SDS011;30019;50.576;8.568;2024-03-17T07:23:26;17.40;;;12.05;;
44304;SDS011;30019;50.576;8.568;2024-03-17T07:25:52;22.17;;;13.80;;
44304;SDS011;30019;50.576;8.568;2024-03-17T07:28:19;16.60;;;11.77;;
44304;SDS011;30019;50.576;8.568;2024-03-17T07:30:52;15.20;;;12.50;;
44304;SDS011;30019;50.576;8.568;2024-03-17T07:33:18;18.25;;;11.73;;
44304;SDS011;30019;50.576;8.568;2024-03-17T07:35:48;16.23;;;11.95;;
44304;SDS011;30019;50.576;8.568;2024-03-17T07:38:14;13.35;;;11.43;;
44304;SDS011;30019;50.576;8.568;2024-03-17T07:40:41;16.13;;;12.38;;
44304;SDS011;30019;50.576;8.568;2024-03-17T07:43:07;17.00;;;12.32;;
44304;SDS011;30019;50.576;8.568;2024-03-17T07:45:33;17.33;;;12.82;;
44304;SDS011;30019;50.576;8.568;2024-03-17T07:47:59;21.85;;;12.77;;
44304;SDS011;30019;50.576;8.568;2024-03-17T07:50:25;19.77;;;12.50;;
44304;SDS011;30019;50.576;8.568;2024-03-17T07:52:52;23.70;;;12.95;;
44304;SDS011;30019;50.576;8.568;2024-03-17T07:55:18;17.15;;;12.20;;
44304;SDS011;30019;50.576;8.568;2024-03-17T07:57:46;18.40;;;12.75;;
44304;SDS011;30019;50.576;8.568;2024-03-17T08:02:49;18.48;;;11.52;;
44304;SDS011;30019;50.576;8.568;2024-03-17T08:05:15;16.77;;;12.75;;
44304;SDS011;30019;50.576;8.568;2024-03-17T08:07:49;17.02;;;12.50;;
44304;SDS011;30019;50.576;8.568;2024-03-17T08:10:15;17.38;;;11.00;;
44304;SDS011;30019;50.576;8.568;2024-03-17T08:12:42;20.67;;;11.57;;
44304;SDS011;30019;50.576;8.568;2024-03-17T08:15:09;17.52;;;11.52;;
44304;SDS011;30019;50.576;8.568;2024-03-17T08:17:36;14.05;;;11.30;;
44304;SDS011;30019;50.576;8.568;2024-03-17T08:20:09;16.52;;;11.02;;
44304;SDS011;30019;50.576;8.568;2024-03-17T08:22:35;17.45;;;11.73;;
44304;SDS011;30019;50.576;8.568;2024-03-17T08:25:01;16.02;;;11.82;;
44304;SDS011;30019;50.576;8.568;2024-03-17T08:27:29;16.33;;;11.52;;
44304;SDS011;30019;50.576;8.568;2024-03-17T08:29:55;17.30;;;11.80;;
44304;SDS011;30019;50.576;8.568;2024-03-17T08:32:32;14.77;;;11.07;;
44304;SDS011;30019;50.576;8.568;2024-03-17T08:35:07;14.52;;;11.00;;
44304;SDS011;30019;50.576;8.568;2024-03-17T08:37:51;11.63;;;9.98;;
44304;SDS011;30019;50.576;8.568;2024-03-17T08:40:24;12.23;;;9.77;;
44304;SDS011;30019;50.576;8.568;2024-03-17T08:42:50;15.18;;;10.32;;
44304;SDS011;30019;50.576;8.568;2024-03-17T08:45:30;14.05;;;10.20;;
44304;SDS011;30019;50.576;8.568;2024-03-17T08:48:03;13.00;;;10.50;;
44304;SDS011;30019;50.576;8.568;2024-03-17T08:50:31;11.73;;;8.95;;
44304;SDS011;30019;50.576;8.568;2024-03-17T08:53:10;10.38;;;9.38;;
44304;SDS011;30019;50.576;8.568;2024-03-17T08:55:38;10.93;;;8.95;;
44304;SDS011;30019;50.576;8.568;2024-03-17T08:58:04;10.50;;;9.15;;
44304;SDS011;30019;50.576;8.568;2024-03-17T09:00:30;12.23;;;10.05;;
44304;SDS011;30019;50.576;8.568;2024-03-17T09:02:57;10.02;;;8.98;;
44304;SDS011;30019;50.576;8.568;2024-03-17T09:05:23;10.98;;;9.38;;
44304;SDS011;30019;50.576;8.568;2024-03-17T09:07:49;10.18;;;8.73;;
44304;SDS011;30019;50.576;8.568;2024-03-17T09:10:15;8.77;;;7.55;;
44304;SDS011;30019;50.576;8.568;2024-03-17T09:12:41;9.98;;;7.57;;
44304;SDS011;30019;50.576;8.568;2024-03-17T09:15:08;12.07;;;7.75;;
44304;SDS011;30019;50.576;8.568;2024-03-17T09:17:36;9.77;;;7.60;;
44304;SDS011;30019;50.576;8.568;2024-03-17T09:20:02;8.02;;;7.03;;
44304;SDS011;30019;50.576;8.568;2024-03-17T09:22:28;8.32;;;6.38;;
44304;SDS011;30019;50.576;8.568;2024-03-17T09:24:54;7.07;;;6.47;;
44304;SDS011;30019;50.576;8.568;2024-03-17T09:27:21;7.07;;;6.10;;
44304;SDS011;30019;50.576;8.568;2024-03-17T09:29:47;7.10;;;5.43;;
44304;SDS011;30019;50.576;8.568;2024-03-17T09:32:13;6.55;;;4.22;;
44304;SDS011;30019;50.576;8.568;2024-03-17T09:34:46;5.63;;;5.13;;
44304;SDS011;30019;50.576;8.568;2024-03-17T09:37:13;4.68;;;4.25;;
44304;SDS011;30019;50.576;8.568;2024-03-17T09:39:40;4.30;;;4.00;;
44304;SDS011;30019;50.576;8.568;2024-03-17T09:42:08;5.45;;;4.28;;
44304;SDS011;30019;50.576;8.568;2024-03-17T09:44:39;4.30;;;3.88;;
44304;SDS011;30019;50.576;8.568;2024-03-17T09:47:06;8.13;;;4.40;;
44304;SDS011;30019;50.576;8.568;2024-03-17T09:49:33;4.22;;;3.83;;
44304;SDS011;30019;50.576;8.568;2024-03-17T09:51:59;8.30;;;4.35;;
44304;SDS011;30019;50.576;8.568;2024-03-17T09:54:25;6.68;;;4.40;;
44304;SDS011;30019;50.576;8.568;2024-03-17T09:56:51;4.22;;;3.90;;
44304;SDS011;30019;50.576;8.568;2024-03-17T09:59:17;4.88;;;4.38;;
44304;SDS011;30019;50.576;8.568;2024-03-17T10:01:43;6.65;;;4.63;;
44304;SDS011;30019;50.576;8.568;2024-03-17T10:04:12;6.45;;;4.70;;
44304;SDS011;30019;50.576;8.568;2024-03-17T10:06:45;6.10;;;5.50;;
44304;SDS011;30019;50.576;8.568;2024-03-17T10:09:14;6.88;;;5.10;;
44304;SDS011;30019;50.576;8.568;2024-03-17T10:11:46;5.32;;;4.82;;
44304;SDS011;30019;50.576;8.568;2024-03-17T10:14:12;4.75;;;4.35;;
44304;SDS011;30019;50.576;8.568;2024-03-17T10:16:41;4.95;;;4.55;;
44304;SDS011;30019;50.576;8.568;2024-03-17T10:19:12;6.78;;;4.90;;
44304;SDS011;30019;50.576;8.568;2024-03-17T10:21:45;4.70;;;4.30;;
44304;SDS011;30019;50.576;8.568;2024-03-17T10:26:49;5.40;;;5.00;;
44304;SDS011;30019;50.576;8.568;2024-03-17T10:29:34;5.15;;;4.72;;
44304;SDS011;30019;50.576;8.568;2024-03-17T10:32:04;7.28;;;4.78;;
44304;SDS011;30019;50.576;8.568;2024-03-17T10:34:41;4.78;;;4.15;;
44304;SDS011;30019;50.576;8.568;2024-03-17T10:37:18;5.15;;;4.70;;
44304;SDS011;30019;50.576;8.568;2024-03-17T10:39:45;7.88;;;4.65;;
44304;SDS011;30019;50.576;8.568;2024-03-17T10:42:14;4.90;;;4.47;;
44304;SDS011;30019;50.576;8.568;2024-03-17T10:44:47;4.68;;;4.25;;
44304;SDS011;30019;50.576;8.568;2024-03-17T10:47:24;6.85;;;4.88;;
44304;SDS011;30019;50.576;8.568;2024-03-17T10:49:50;6.55;;;4.90;;
44304;SDS011;30019;50.576;8.568;2024-03-17T10:52:17;6.50;;;5.38;;
44304;SDS011;30019;50.576;8.568;2024-03-17T10:54:48;6.20;;;4.90;;
44304;SDS011;30019;50.576;8.568;2024-03-17T10:57:20;5.10;;;4.72;;
44304;SDS011;30019;50.576;8.568;2024-03-17T10:59:50;5.05;;;4.55;;
44304;SDS011;30019;50.576;8.568;2024-03-17T11:02:24;5.70;;;4.93;;
44304;SDS011;30019;50.576;8.568;2024-03-17T11:04:52;7.55;;;4.75;;
44304;SDS011;30019;50.576;8.568;2024-03-17T11:07:19;5.15;;;4.65;;
44304;SDS011;30019;50.576;8.568;2024-03-17T11:09:46;5.40;;;4.88;;
44304;SDS011;30019;50.576;8.568;2024-03-17T11:17:42;5.20;;;4.72;;
44304;SDS011;30019;50.576;8.568;2024-03-17T11:20:22;6.63;;;4.78;;
44304;SDS011;30019;50.576;8.568;2024-03-17T11:22:50;6.05;;;3.95;;
44304;SDS011;30019;50.576;8.568;2024-03-17T11:27:52;5.15;;;4.65;;
44304;SDS011;30019;50.576;8.568;2024-03-17T11:33:02;4.95;;;4.15;;
44304;SDS011;30019;50.576;8.568;2024-03-17T11:35:29;5.18;;;4.22;;
44304;SDS011;30019;50.576;8.568;2024-03-17T11:37:55;6.10;;;4.50;;
44304;SDS011;30019;50.576;8.568;2024-03-17T11:40:25;5.30;;;4.70;;
44304;SDS011;30019;50.576;8.568;2024-03-17T11:43:00;8.20;;;5.63;;
44304;SDS011;30019;50.576;8.568;2024-03-17T11:45:26;5.20;;;4.30;;
44304;SDS011;30019;50.576;8.568;2024-03-17T11:47:52;7.47;;;4.55;;
44304;SDS011;30019;50.576;8.568;2024-03-17T11:50:19;7.13;;;5.00;;
44304;SDS011;30019;50.576;8.568;2024-03-17T11:52:45;5.00;;;4.43;;
44304;SDS011;30019;50.576;8.568;2024-03-17T11:55:15;6.35;;;4.60;;
44304;SDS011;30019;50.576;8.568;2024-03-17T11:57:43;5.35;;;4.82;;
44304;SDS011;30019;50.576;8.568;2024-03-17T12:00:20;5.60;;;4.55;;
44304;SDS011;30019;50.576;8.568;2024-03-17T12:02:48;5.53;;;4.57;;
44304;SDS011;30019;50.576;8.568;2024-03-17T12:05:14;5.20;;;4.72;;
44304;SDS011;30019;50.576;8.568;2024-03-17T12:07:43;7.53;;;4.82;;
44304;SDS011;30019;50.576;8.568;2024-03-17T12:10:13;4.53;;;4.18;;
44304;SDS011;30019;50.576;8.568;2024-03-17T12:12:39;4.97;;;4.50;;
44304;SDS011;30019;50.576;8.568;2024-03-17T12:15:19;6.35;;;5.05;;
44304;SDS011;30019;50.576;8.568;2024-03-17T12:17:46;5.55;;;4.90;;
44304;SDS011;30019;50.576;8.568;2024-03-17T12:20:17;5.15;;;4.60;;
44304;SDS011;30019;50.576;8.568;2024-03-17T12:22:44;5.20;;;4.30;;
44304;SDS011;30019;50.576;8.568;2024-03-17T12:25:16;5.90;;;5.30;;
44304;SDS011;30019;50.576;8.568;2024-03-17T12:27:43;5.10;;;4.70;;
44304;SDS011;30019;50.576;8.568;2024-03-17T12:30:10;7.03;;;4.57;;
44304;SDS011;30019;50.576;8.568;2024-03-17T12:32:36;5.20;;;4.22;;
44304;SDS011;30019;50.576;8.568;2024-03-17T12:35:02;4.80;;;4.40;;
44304;SDS011;30019;50.576;8.568;2024-03-17T12:37:37;5.55;;;5.00;;
44304;SDS011;30019;50.576;8.568;2024-03-17T12:40:05;7.80;;;5.65;;
44304;SDS011;30019;50.576;8.568;2024-03-17T12:42:32;6.72;;;4.68;;
44304;SDS011;30019;50.576;8.568;2024-03-17T12:44:59;5.72;;;4.80;;
44304;SDS011;30019;50.576;8.568;2024-03-17T12:47:29;6.18;;;5.57;;
44304;SDS011;30019;50.576;8.568;2024-03-17T12:49:59;5.78;;;4.47;;
44304;SDS011;30019;50.576;8.568;2024-03-17T12:52:26;7.03;;;4.70;;
44304;SDS011;30019;50.576;8.568;2024-03-17T12:54:58;10.55;;;8.40;;
44304;SDS011;30019;50.576;8.568;2024-03-17T12:57:43;7.03;;;5.10;;
44304;SDS011;30019;50.576;8.568;2024-03-17T13:00:28;5.47;;;4.97;;
44304;SDS011;30019;50.576;8.568;2024-03-17T13:03:04;6.35;;;5.57;;
44304;SDS011;30019;50.576;8.568;2024-03-17T13:05:30;8.73;;;4.68;;
44304;SDS011;30019;50.576;8.568;2024-03-17T13:07:57;5.70;;;5.13;;
44304;SDS011;30019;50.576;8.568;2024-03-17T13:10:23;7.05;;;5.72;;
44304;SDS011;30019;50.576;8.568;2024-03-17T13:13:12;5.35;;;4.85;;
44304;SDS011;30019;50.576;8.568;2024-03-17T13:15:37;5.97;;;5.28;;
44304;SDS011;30019;50.576;8.568;2024-03-17T13:18:04;6.47;;;5.80;;
44304;SDS011;30019;50.576;8.568;2024-03-17T13:20:30;11.45;;;7.68;;
44304;SDS011;30019;50.576;8.568;2024-03-17T13:22:57;6.53;;;5.63;;
44304;SDS011;30019;50.576;8.568;2024-03-17T13:25:24;21.17;;;14.40;;
44304;SDS011;30019;50.576;8.568;2024-03-17T13:28:01;5.88;;;5.47;;
44304;SDS011;30019;50.576;8.568;2024-03-17T13:30:28;9.10;;;4.97;;
44304;SDS011;30019;50.576;8.568;2024-03-17T13:32:55;5.53;;;5.03;;
44304;SDS011;30019;50.576;8.568;2024-03-17T13:35:23;6.43;;;5.13;;
44304;SDS011;30019;50.576;8.568;2024-03-17T13:37:50;5.43;;;4.90;;
44304;SDS011;30019;50.576;8.568;2024-03-17T13:40:19;7.05;;;5.32;;
44304;SDS011;30019;50.576;8.568;2024-03-17T13:42:46;5.15;;;4.65;;
44304;SDS011;30019;50.576;8.568;2024-03-17T13:45:12;8.00;;;5.55;;
44304;SDS011;30019;50.576;8.568;2024-03-17T13:47:43;6.07;;;5.05;;
44304;SDS011;30019;50.576;8.568;2024-03-17T13:50:11;6.47;;;5.53;;
44304;SDS011;30019;50.576;8.568;2024-03-17T13:52:40;5.25;;;4.85;;
44304;SDS011;30019;50.576;8.568;2024-03-17T13:55:16;12.38;;;5.85;;
44304;SDS011;30019;50.576;8.568;2024-03-17T13:57:44;5.95;;;5.45;;
44304;SDS011;30019;50.576;8.568;2024-03-17T14:00:10;5.10;;;4.60;;
44304;SDS011;30019;50.576;8.568;2024-03-17T14:02:41;4.90;;;4.50;;
44304;SDS011;30019;50.576;8.568;2024-03-17T14:05:07;5.35;;;4.85;;
44304;SDS011;30019;50.576;8.568;2024-03-17T14:07:33;8.10;;;6.40;;
44304;SDS011;30019;50.576;8.568;2024-03-17T14:09:59;9.23;;;7.38;;
44304;SDS011;30019;50.576;8.568;2024-03-17T14:12:25;5.75;;;5.25;;
44304;SDS011;30019;50.576;8.568;2024-03-17T14:14:51;5.18;;;4.60;;
44304;SDS011;30019;50.576;8.568;2024-03-17T14:17:18;9.25;;;6.90;;
44304;SDS011;30019;50.576;8.568;2024-03-17T14:19:44;8.43;;;5.20;;
44304;SDS011;30019;50.576;8.568;2024-03-17T14:22:10;6.20;;;5.60;;
44304;SDS011;30019;50.576;8.568;2024-03-17T14:24:36;7.72;;;5.65;;
44304;SDS011;30019;50.576;8.568;2024-03-17T14:27:02;6.32;;;5.57;;
44304;SDS011;30019;50.576;8.568;2024-03-17T14:29:29;7.35;;;6.38;;
44304;SDS011;30019;50.576;8.568;2024-03-17T14:31:56;6.53;;;5.45;;
44304;SDS011;30019;50.576;8.568;2024-03-17T14:34:22;6.50;;;5.43;;
44304;SDS011;30019;50.576;8.568;2024-03-17T14:36:48;5.13;;;4.50;;
44304;SDS011;30019;50.576;8.568;2024-03-17T14:39:14;5.97;;;5.40;;
44304;SDS011;30019;50.576;8.568;2024-03-17T14:41:40;7.55;;;5.60;;
44304;SDS011;30019;50.576;8.568;2024-03-17T14:44:06;6.22;;;5.00;;
44304;SDS011;30019;50.576;8.568;2024-03-17T14:46:33;5.85;;;4.60;;
44304;SDS011;30019;50.576;8.568;2024-03-17T14:48:59;7.05;;;5.20;;
44304;SDS011;30019;50.576;8.568;2024-03-17T14:51:26;10.60;;;5.15;;
44304;SDS011;30019;50.576;8.568;2024-03-17T14:53:52;7.38;;;4.75;;
44304;SDS011;30019;50.576;8.568;2024-03-17T14:56:18;5.00;;;4.50;;